Time;durP1;ratioP1;P1;durP2;ratioP2;P2;SDS_P1;SDS_P2;PMS_P1;PMS_P2;Temp;Humidity;BMP_temperature;BMP_pressure;BME280_temperature;BME280_humidity;BME280_pressure;Samples;Min_cycle;Max_cycle;Signal;HPM_P1;HPM_P2
2022/08/16 00:01:00;;;;;;;;;31.00;29.75;;;;;26.36;44.52;100258.09;5022941;28;46857;-44
2022/08/16 00:03:26;;;;;;;;;35.50;30.50;;;;;26.37;44.75;100251.00;5019132;28;45377;-46
2022/08/16 00:05:51;;;;;;;;;31.50;29.75;;;;;26.34;44.46;100252.13;5018433;28;45358;-43
2022/08/16 00:08:18;;;;;;;;;30.00;29.00;;;;;26.32;44.18;100247.91;5018641;28;45556;-44
2022/08/16 00:10:43;;;;;;;;;27.50;27.50;;;;;26.30;44.62;100255.16;5017248;28;46260;-43
2022/08/16 00:13:10;;;;;;;;;31.50;30.00;;;;;26.29;44.77;100258.81;5019413;28;45371;-44
2022/08/16 00:15:40;;;;;;;;;28.75;24.00;;;;;26.29;44.77;100257.00;5018138;28;45257;-42
2022/08/16 00:18:08;;;;;;;;;28.75;26.50;;;;;26.31;44.92;100259.50;5018367;28;45339;-41
2022/08/16 00:20:35;;;;;;;;;25.00;23.25;;;;;26.31;44.86;100262.16;5017605;28;45447;-43
2022/08/16 00:23:01;;;;;;;;;31.50;28.00;;;;;26.30;44.78;100260.47;5018014;28;45823;-42
2022/08/16 00:25:26;;;;;;;;;28.25;25.50;;;;;26.30;44.49;100260.47;5018012;28;45337;-45
2022/08/16 00:27:52;;;;;;;;;29.25;28.25;;;;;26.28;44.96;100257.13;5017642;28;45274;-42
2022/08/16 00:30:19;;;;;;;;;31.25;28.75;;;;;26.26;44.97;100267.88;5017692;28;48403;-42
2022/08/16 00:32:47;;;;;;;;;27.25;26.75;;;;;26.24;44.63;100262.72;5017872;28;45980;-42
2022/08/16 00:35:16;;;;;;;;;32.00;29.00;;;;;26.24;44.89;100268.03;5017719;28;45394;-42
2022/08/16 00:37:44;;;;;;;;;26.75;26.25;;;;;26.21;45.04;100270.94;5017523;28;45620;-45
2022/08/16 00:40:10;;;;;;;;;26.75;25.25;;;;;26.24;44.96;100268.03;5017764;28;46186;-42
2022/08/16 00:42:36;;;;;;;;;26.50;25.00;;;;;26.24;44.51;100261.84;5017390;28;45315;-42
2022/08/16 01:01:09;;;;;;;;;29.75;25.75;;;;;26.03;44.80;100243.34;5130700;27;45299;-55
2022/08/16 01:03:35;;;;;;;;;33.75;28.75;;;;;26.10;45.16;100248.97;5112592;27;45941;-56
2022/08/16 01:06:03;;;;;;;;;30.25;26.25;;;;;26.08;45.06;100246.41;5113679;27;45233;-50
2022/08/16 01:08:29;;;;;;;;;29.00;28.00;;;;;26.04;44.99;100237.06;5114247;27;45482;-56
2022/08/16 01:10:55;;;;;;;;;30.75;29.00;;;;;26.00;45.57;100238.28;5113161;27;47077;-54
2022/08/16 01:13:25;;;;;;;;;30.00;29.50;;;;;26.00;45.20;100232.97;5113630;27;46045;-57
2022/08/16 01:15:54;;;;;;;;;30.00;28.00;;;;;26.02;44.94;100234.53;5113272;27;45419;-57
2022/08/16 01:18:27;;;;;;;;;25.25;25.25;;;;;26.02;45.46;100225.72;5113554;27;45511;-57
2022/08/16 01:21:15;;;;;;;;;30.25;24.50;;;;;25.99;45.04;100223.34;5113102;27;45487;-54
2022/08/16 01:24:22;;;;;;;;;25.00;25.00;;;;;26.00;45.33;100228.53;5113348;27;45853;-54
2022/08/16 01:26:50;;;;;;;;;15.75;15.75;;;;;25.99;45.04;100232.16;5092145;27;45228;-57
2022/08/16 01:29:23;;;;;;;;;30.25;26.25;;;;;26.01;45.03;100234.66;5112057;27;45572;-55
2022/08/16 01:31:49;;;;;;;;;27.25;25.00;;;;;26.04;45.20;100239.72;5112822;27;46437;-57
2022/08/16 01:34:17;;;;;;;;;26.75;26.25;;;;;26.04;45.49;100239.72;5113164;27;45388;-57
2022/08/16 01:36:44;;;;;;;;;27.25;26.00;;;;;26.09;45.19;100237.47;5113203;27;45423;-57
2022/08/16 01:39:14;;;;;;;;;31.50;24.50;;;;;26.12;44.90;100242.56;5113223;27;45574;-56
2022/08/16 01:41:40;;;;;;;;;24.25;24.25;;;;;26.14;44.68;100237.94;5112897;27;47156;-57
2022/08/16 01:44:06;;;;;;;;;30.50;29.00;;;;;26.16;44.71;100243.97;5112776;27;45775;-56
2022/08/16 01:46:39;;;;;;;;;25.50;25.50;;;;;26.18;44.58;100239.34;5113401;27;45483;-57
2022/08/16 01:49:17;;;;;;;;;27.00;23.75;;;;;26.19;45.03;100241.03;5112907;27;45416;-57
2022/08/16 01:51:45;;;;;;;;;28.50;28.50;;;;;26.20;44.79;100239.22;5112816;27;46276;-57
2022/08/16 01:54:11;;;;;;;;;27.25;25.50;;;;;26.19;44.53;100238.38;5112842;27;45895;-55
2022/08/16 01:56:36;;;;;;;;;27.75;25.75;;;;;26.21;44.73;100235.59;5112818;27;45350;-55
2022/08/16 01:59:06;;;;;;;;;29.00;26.00;;;;;26.22;44.68;100242.59;5112856;27;45582;-53
2022/08/16 02:01:32;;;;;;;;;31.75;28.25;;;;;26.21;44.85;100241.72;5102176;27;46139;-48
2022/08/16 02:03:58;;;;;;;;;35.50;32.50;;;;;26.21;44.73;100236.41;5098857;27;45853;-50
2022/08/16 02:06:24;;;;;;;;;30.25;25.50;;;;;26.20;44.72;100233.91;5099093;27;45422;-50
2022/08/16 02:08:50;;;;;;;;;32.50;29.25;;;;;26.26;44.78;100232.53;5098811;27;45376;-49
2022/08/16 02:11:15;;;;;;;;;43.25;33.50;;;;;26.28;44.42;100235.88;5098626;27;46324;-47
2022/08/16 02:13:41;;;;;;;;;45.00;36.00;;;;;26.24;44.64;100230.84;5098850;27;45405;-49
2022/08/16 02:16:07;;;;;;;;;42.50;35.00;;;;;26.18;44.63;100242.00;5098538;27;45361;-56
2022/08/16 02:18:33;;;;;;;;;45.00;35.25;;;;;26.14;45.01;100240.59;5114801;27;45401;-54
2022/08/16 02:20:59;;;;;;;;;44.25;35.25;;;;;26.11;44.71;100237.38;5098559;27;46307;-57
2022/08/16 02:23:25;;;;;;;;;39.00;35.50;;;;;26.04;44.84;100239.72;5098684;27;45948;-56
2022/08/16 02:25:51;;;;;;;;;45.25;38.50;;;;;26.00;44.89;100246.25;5098504;27;45185;-57
2022/08/16 02:28:17;;;;;;;;;47.75;39.00;;;;;25.96;44.90;100234.25;5097682;27;45721;-58
2022/08/16 02:30:42;;;;;;;;;43.25;36.00;;;;;25.90;44.89;100225.00;5098426;27;45475;-57
2022/08/16 02:33:08;;;;;;;;;46.25;37.00;;;;;25.87;45.54;100223.44;5098205;27;45354;-63
2022/08/16 02:35:35;;;;;;;;;42.75;33.00;;;;;25.85;45.40;100212.13;5098701;27;45371;-55
2022/08/16 02:38:00;;;;;;;;;38.25;33.50;;;;;25.84;45.16;100207.81;5098707;27;45271;-57
2022/08/16 02:40:26;;;;;;;;;40.50;33.50;;;;;25.83;45.56;100200.81;5096816;27;51940;-57
2022/08/16 02:42:53;;;;;;;;;37.75;34.50;;;;;25.82;45.64;100193.81;5097873;27;45379;-57
2022/08/16 02:45:21;;;;;;;;;32.25;27.75;;;;;25.82;45.33;100180.56;5098503;27;45212;-57
2022/08/16 02:47:47;;;;;;;;;33.75;32.25;;;;;25.80;46.18;100177.19;5098207;27;45345;-56
2022/08/16 02:50:12;;;;;;;;;36.50;31.25;;;;;25.77;45.72;100180.97;5097926;27;45399;-57
2022/08/16 02:52:38;;;;;;;;;36.00;32.50;;;;;25.80;45.93;100195.78;5098178;27;45326;-52
2022/08/16 02:55:04;;;;;;;;;37.00;31.50;;;;;25.82;45.57;100193.81;5098183;27;45381;-53
2022/08/16 02:57:30;;;;;;;;;36.25;32.75;;;;;25.84;46.03;100191.88;5098663;27;45415;-48
2022/08/16 02:59:55;;;;;;;;;34.25;30.00;;;;;25.87;45.51;100185.44;5097588;27;45378;-53
2022/08/16 03:02:21;;;;;;;;;29.50;28.75;;;;;25.87;45.96;100169.53;5097979;27;45411;-47
2022/08/16 03:04:46;;;;;;;;;30.50;28.00;;;;;25.82;46.01;100166.41;5097961;27;45398;-51
2022/08/16 03:07:13;;;;;;;;;34.25;30.50;;;;;25.79;45.43;100162.22;5098320;27;45384;-55
2022/08/16 03:09:38;;;;;;;;;36.75;32.50;;;;;25.81;46.04;100180.66;5096562;27;45990;-48
2022/08/16 03:12:05;;;;;;;;;32.50;28.25;;;;;25.77;45.92;100172.16;5096543;27;45273;-51
2022/08/16 03:14:32;;;;;;;;;33.50;29.75;;;;;25.74;46.28;100169.78;5098235;27;45259;-49
2022/08/16 03:16:58;;;;;;;;;36.25;31.50;;;;;25.73;45.95;100170.75;5097727;27;45581;-47
2022/08/16 03:19:24;;;;;;;;;35.75;31.25;;;;;25.71;46.11;100178.00;5097665;27;45503;-56
2022/08/16 03:21:50;;;;;;;;;36.00;32.50;;;;;25.70;46.47;100181.63;5097495;27;45804;-54
2022/08/16 03:24:15;;;;;;;;;31.50;29.75;;;;;25.70;46.31;100184.28;5097890;27;45315;-56
2022/08/16 03:26:40;;;;;;;;;32.50;30.75;;;;;25.70;46.63;100189.59;5097904;27;45316;-55
2022/08/16 03:29:06;;;;;;;;;37.50;30.50;;;;;25.66;46.03;100189.03;5097226;27;46258;-57
2022/08/16 03:31:31;;;;;;;;;34.00;31.00;;;;;25.67;46.34;100195.16;5097870;27;45474;-57
2022/08/16 03:33:57;;;;;;;;;27.75;26.00;;;;;25.66;46.71;100189.03;5097500;27;45369;-56
2022/08/16 03:36:22;;;;;;;;;30.25;28.25;;;;;25.68;46.78;100188.88;5098039;27;45307;-56
2022/08/16 03:38:47;;;;;;;;;29.25;29.25;;;;;25.67;46.72;100185.41;5097443;27;45171;-53
2022/08/16 03:41:13;;;;;;;;;27.00;25.25;;;;;25.71;46.48;100199.25;5097557;27;45264;-56
2022/08/16 03:43:38;;;;;;;;;36.75;29.25;;;;;25.75;46.44;100203.28;5097570;27;45289;-59
2022/08/16 03:46:04;;;;;;;;;32.00;29.25;;;;;25.78;45.94;100203.03;5097860;27;46216;-61
2022/08/16 03:48:33;;;;;;;;;30.50;27.75;;;;;25.78;46.13;100200.38;5097636;27;45416;-54
2022/08/16 03:51:00;;;;;;;;;34.25;32.25;;;;;25.78;46.30;100203.03;5097029;27;45401;-57
2022/08/16 03:53:27;;;;;;;;;29.00;27.50;;;;;25.79;46.47;100215.31;5097518;27;45324;-57
2022/08/16 03:55:52;;;;;;;;;32.50;29.25;;;;;25.80;46.38;100219.66;5097410;27;45459;-54
2022/08/16 03:58:18;;;;;;;;;38.25;31.50;;;;;25.82;46.19;100220.38;5095750;27;46505;-52
2022/08/16 04:00:44;;;;;;;;;33.75;32.00;;;;;25.85;46.46;100225.38;5096772;27;45192;-57
2022/08/16 04:03:09;;;;;;;;;34.50;31.75;;;;;25.89;46.05;100218.03;5096958;27;45156;-57
2022/08/16 04:05:38;;;;;;;;;33.00;28.75;;;;;25.92;46.04;100220.38;5097685;27;45218;-57
2022/08/16 04:08:05;;;;;;;;;31.00;29.25;;;;;25.92;46.43;100215.94;5097025;27;46126;-52
2022/08/16 04:10:30;;;;;;;;;27.25;26.00;;;;;25.92;46.02;100210.63;5097072;27;45820;-53
2022/08/16 04:12:56;;;;;;;;;30.00;27.50;;;;;25.92;46.34;100221.22;5096849;27;45418;-57
2022/08/16 04:15:21;;;;;;;;;32.75;27.75;;;;;25.93;45.89;100222.91;5097130;27;45317;-55
2022/08/16 04:17:47;;;;;;;;;28.00;26.50;;;;;25.93;46.28;100222.91;5096124;27;53847;-56
2022/08/16 04:20:13;;;;;;;;;25.25;24.50;;;;;25.94;45.75;100218.44;5096854;27;45297;-57
2022/08/16 04:22:42;;;;;;;;;28.00;27.25;;;;;25.95;45.96;100216.63;5096864;27;45376;-57
2022/08/16 04:25:09;;;;;;;;;26.50;25.25;;;;;25.90;45.92;100217.88;5096477;27;45451;-56
2022/08/16 04:27:35;;;;;;;;;29.25;26.50;;;;;25.86;46.57;100215.63;5096957;27;46128;-56
2022/08/16 04:30:04;;;;;;;;;28.50;27.25;;;;;25.84;46.17;100220.22;5096506;27;45943;-51
2022/08/16 04:32:29;;;;;;;;;26.50;26.00;;;;;25.78;46.61;100219.81;5096703;27;45226;-49
2022/08/16 04:34:55;;;;;;;;;27.25;27.25;;;;;25.75;46.40;100213.91;5096648;27;45391;-52
2022/08/16 04:37:20;;;;;;;;;30.00;25.50;;;;;25.74;46.67;100221.03;5096277;27;51159;-56
2022/08/16 04:39:45;;;;;;;;;26.50;23.75;;;;;25.72;46.76;100219.50;5095056;27;45849;-57
2022/08/16 04:42:11;;;;;;;;;23.50;23.50;;;;;25.71;46.83;100226.59;5096696;27;45715;-57
2022/08/16 04:44:36;;;;;;;;;25.50;25.50;;;;;25.69;46.62;100219.75;5097156;27;45578;-55
2022/08/16 04:47:02;;;;;;;;;28.75;24.75;;;;;25.71;46.36;100215.16;5096357;27;46832;-58
2022/08/16 04:49:28;;;;;;;;;28.00;25.25;;;;;25.70;46.96;100213.47;5096304;27;45363;-57
2022/08/16 04:51:53;;;;;;;;;25.25;24.25;;;;;25.71;46.68;100212.50;5096415;27;45420;-57
2022/08/16 04:54:18;;;;;;;;;23.50;22.75;;;;;25.73;46.57;100222.00;5096741;27;45443;-50
2022/08/16 04:56:44;;;;;;;;;22.00;22.00;;;;;25.72;46.74;100227.47;5096047;27;53609;-52
2022/08/16 04:59:09;;;;;;;;;27.75;23.00;;;;;25.72;46.19;100220.31;5095938;27;45351;-52
2022/08/16 05:01:36;;;;;;;;;27.25;24.75;;;;;25.71;46.92;100223.13;5096597;27;45414;-51
2022/08/16 05:04:02;;;;;;;;;24.25;21.00;;;;;25.70;46.19;100227.56;5095126;27;45310;-56
2022/08/16 05:06:28;;;;;;;;;24.50;24.50;;;;;25.68;46.89;100223.38;5096144;27;46746;-57
2022/08/16 05:08:53;;;;;;;;;22.25;20.50;;;;;25.66;47.00;100230.63;5095785;27;45878;-57
2022/08/16 05:11:21;;;;;;;;;24.75;24.75;;;;;25.65;46.73;100231.59;5096285;27;45480;-56
2022/08/16 05:13:47;;;;;;;;;24.50;23.50;;;;;25.66;46.64;100239.44;5096108;27;45400;-57
2022/08/16 05:16:20;;;;;;;;;24.25;22.75;;;;;25.67;47.28;100238.47;5095961;27;45469;-56
2022/08/16 05:18:46;;;;;;;;;26.25;25.00;;;;;25.66;46.62;100241.25;5095826;27;45359;-53
2022/08/16 05:21:12;;;;;;;;;27.50;24.50;;;;;25.67;47.03;100248.25;5094897;27;45240;-56
2022/08/16 05:23:37;;;;;;;;;23.75;23.25;;;;;25.69;46.86;100256.91;5096719;27;45570;-57
2022/08/16 05:26:03;;;;;;;;;27.00;23.25;;;;;25.68;46.80;100266.69;5095774;27;46262;-57
2022/08/16 05:28:29;;;;;;;;;24.00;24.00;;;;;25.67;47.02;100265.03;5095908;27;45985;-56
2022/08/16 05:30:54;;;;;;;;;22.50;22.25;;;;;25.68;47.23;100260.53;5095846;27;45307;-56
2022/08/16 05:33:21;;;;;;;;;25.50;22.50;;;;;25.66;47.10;100265.13;5096002;27;45402;-55
2022/08/16 05:35:48;;;;;;;;;25.00;25.00;;;;;25.65;47.50;100272.28;5096429;27;46548;-57
2022/08/16 05:38:13;;;;;;;;;26.50;23.50;;;;;25.63;46.95;100267.06;5099384;27;45285;-56
2022/08/16 05:40:39;;;;;;;;;21.25;20.00;;;;;25.63;47.11;100269.72;5099371;27;45364;-56
2022/08/16 05:43:05;;;;;;;;;25.50;24.25;;;;;25.65;46.88;100259.00;5099700;27;45317;-57
2022/08/16 05:45:31;;;;;;;;;27.50;25.00;;;;;25.63;46.88;100259.09;5098906;27;48020;-53
2022/08/16 05:47:57;;;;;;;;;23.25;23.25;;;;;25.61;47.43;100257.56;5099653;27;45331;-57
2022/08/16 05:50:23;;;;;;;;;24.25;23.50;;;;;25.56;46.89;100262.44;5099761;27;45347;-57
2022/08/16 05:52:49;;;;;;;;;23.50;22.75;;;;;25.52;47.45;100272.47;5099651;27;45644;-58
2022/08/16 05:55:14;;;;;;;;;25.50;23.75;;;;;25.50;47.17;100277.09;5098948;27;46160;-57
2022/08/16 05:57:40;;;;;;;;;25.50;24.00;;;;;25.48;47.00;100276.38;5099027;27;45353;-57
2022/08/16 06:00:08;;;;;;;;;26.25;24.50;;;;;25.45;47.46;100273.97;5099013;27;45467;-53
2022/08/16 06:02:34;;;;;;;;;24.50;23.25;;;;;25.40;47.88;100282.31;5099720;27;45197;-52
2022/08/16 06:05:00;;;;;;;;;23.00;22.75;;;;;25.38;47.45;100283.41;5098689;27;46605;-52
2022/08/16 06:07:25;;;;;;;;;23.00;23.00;;;;;25.34;47.75;100287.28;5098908;27;45399;-53
2022/08/16 06:09:51;;;;;;;;;23.75;23.75;;;;;25.31;47.87;100285.72;5098643;27;45251;-47
2022/08/16 06:12:17;;;;;;;;;24.50;22.00;;;;;25.30;47.55;100286.69;5098977;27;45591;-57
2022/08/16 06:14:42;;;;;;;;;25.75;22.75;;;;;25.28;48.02;100292.16;5097468;27;46969;-56
2022/08/16 06:17:07;;;;;;;;;28.25;24.50;;;;;25.24;48.12;100296.00;5098735;27;45389;-56
2022/08/16 06:19:33;;;;;;;;;25.50;22.25;;;;;25.23;47.98;100294.34;5097643;27;45334;-57
2022/08/16 06:21:59;;;;;;;;;28.00;24.00;;;;;25.20;47.58;100288.44;5098438;27;45603;-57
2022/08/16 06:24:24;;;;;;;;;28.75;25.75;;;;;25.19;47.84;100287.59;5098396;27;46553;-57
2022/08/16 06:26:50;;;;;;;;;27.00;24.00;;;;;25.15;47.76;100283.53;5097122;27;45742;-57
2022/08/16 06:29:15;;;;;;;;;23.25;21.00;;;;;25.09;48.11;100282.22;5098679;27;45297;-50
2022/08/16 06:31:41;;;;;;;;;24.00;23.00;;;;;25.15;47.84;100292.31;5114647;27;45511;-47
2022/08/16 06:34:06;;;;;;;;;19.50;18.75;;;;;25.15;48.05;100292.31;5098501;27;45425;-50
2022/08/16 06:36:32;;;;;;;;;22.50;21.75;;;;;25.14;47.68;100292.47;5098399;27;45451;-47
2022/08/16 06:38:58;;;;;;;;;22.00;21.00;;;;;25.14;48.17;100295.09;5098165;27;45416;-49
2022/08/16 06:41:24;;;;;;;;;23.25;21.25;;;;;25.16;48.27;100290.53;5098543;27;45428;-47
2022/08/16 06:43:49;;;;;;;;;24.25;20.50;;;;;25.17;47.95;100281.59;5098008;27;47296;-46
2022/08/16 06:46:27;;;;;;;;;23.50;21.50;;;;;25.17;48.30;100281.59;5098068;27;47702;-47
2022/08/16 06:48:52;;;;;;;;;21.00;21.00;;;;;25.20;48.33;100283.16;5098175;27;45337;-48
2022/08/16 06:51:18;;;;;;;;;22.25;20.25;;;;;25.24;47.64;100290.72;5098548;27;45319;-48
2022/08/16 06:53:43;;;;;;;;;27.00;23.25;;;;;25.24;47.48;100293.38;5098179;27;47062;-52
2022/08/16 06:56:09;;;;;;;;;24.00;23.00;;;;;25.24;47.49;100296.00;5098182;27;45373;-49
2022/08/16 06:58:35;;;;;;;;;22.00;20.00;;;;;25.24;47.95;100288.06;5098421;27;45479;-53
2022/08/16 07:01:01;;;;;;;;;21.25;20.00;;;;;25.26;47.46;100293.22;5098071;27;45444;-53
2022/08/16 07:03:30;;;;;;;;;22.00;21.75;;;;;25.28;48.04;100293.94;5098172;27;45324;-49
2022/08/16 07:05:56;;;;;;;;;23.00;21.75;;;;;25.29;47.38;100298.28;5097902;27;46004;-51
2022/08/16 07:08:23;;;;;;;;;22.25;21.75;;;;;25.28;47.52;100292.16;5097981;27;45368;-50
2022/08/16 07:10:49;;;;;;;;;19.00;17.50;;;;;25.28;48.02;100299.25;5097922;27;45399;-57
2022/08/16 07:13:15;;;;;;;;;21.75;20.50;;;;;25.29;47.46;100292.97;5097561;27;45297;-51
2022/08/16 07:15:41;;;;;;;;;18.25;18.25;;;;;25.27;47.70;100301.06;5098255;27;45372;-51
2022/08/16 07:18:07;;;;;;;;;24.50;20.25;;;;;25.27;47.59;100306.38;5098063;27;45396;-52
2022/08/16 07:20:32;;;;;;;;;23.25;19.75;;;;;25.28;47.75;100310.72;5098008;27;45549;-52
2022/08/16 07:22:58;;;;;;;;;20.75;20.25;;;;;25.27;47.49;100303.72;5097296;27;46015;-51
2022/08/16 07:25:23;;;;;;;;;20.75;19.75;;;;;25.26;47.57;100296.72;5097630;27;45220;-55
2022/08/16 07:27:49;;;;;;;;;20.75;19.00;;;;;25.28;47.74;100302.75;5097451;27;45329;-58
2022/08/16 07:30:16;;;;;;;;;23.75;19.50;;;;;25.28;48.03;100308.06;5097971;27;45569;-53
2022/08/16 07:32:41;;;;;;;;;20.75;19.00;;;;;25.29;47.38;100307.09;5096547;27;45433;-53
2022/08/16 07:35:07;;;;;;;;;21.50;20.50;;;;;25.29;47.93;100303.59;5096315;27;45266;-51
2022/08/16 07:37:33;;;;;;;;;20.75;18.00;;;;;25.29;47.94;100306.22;5097617;27;45364;-48
2022/08/16 07:39:58;;;;;;;;;24.25;22.00;;;;;25.29;47.59;100316.84;5097516;27;45535;-53
2022/08/16 07:42:23;;;;;;;;;24.25;22.50;;;;;25.26;48.02;100325.91;5097260;27;46510;-49
2022/08/16 07:44:49;;;;;;;;;22.00;20.67;;;;;25.27;48.08;100311.69;5096461;27;61099;-51
2022/08/16 07:47:14;;;;;;;;;20.25;19.75;;;;;25.26;47.64;100315.28;5097397;27;45308;-47
2022/08/16 07:49:40;;;;;;;;;30.50;20.75;;;;;25.27;47.43;100321.44;5097892;27;45425;-51
2022/08/16 07:52:05;;;;;;;;;18.00;16.75;;;;;25.27;47.78;100321.44;5096710;27;45475;-50
2022/08/16 07:54:30;;;;;;;;;20.25;20.25;;;;;25.26;47.59;100320.59;5097133;27;45314;-49
2022/08/16 07:56:56;;;;;;;;;19.25;17.75;;;;;25.26;48.11;100315.28;5095491;27;50907;-51
2022/08/16 07:59:23;;;;;;;;;19.67;19.67;;;;;25.24;47.56;100316.41;5094687;27;52110;-51
2022/08/16 08:01:50;;;;;;;;;23.00;15.75;;;;;25.21;48.30;100328.09;5096782;27;46952;-48
2022/08/16 08:04:16;;;;;;;;;21.00;19.00;;;;;25.19;47.99;100319.41;5097088;27;45332;-50
2022/08/16 08:06:42;;;;;;;;;27.00;23.25;;;;;25.19;47.80;100324.72;5097453;27;45463;-48
2022/08/16 08:09:07;;;;;;;;;18.75;18.00;;;;;25.18;47.74;100323.06;5096998;27;45214;-47
2022/08/16 08:11:32;;;;;;;;;20.00;20.00;;;;;25.17;47.90;100316.91;5096899;27;46746;-49
2022/08/16 08:13:59;;;;;;;;;22.50;19.25;;;;;25.17;48.04;100318.72;5096697;27;45479;-51
2022/08/16 08:16:25;;;;;;;;;21.50;19.75;;;;;25.18;48.16;100315.09;5097133;27;45356;-58
2022/08/16 08:18:53;;;;;;;;;19.75;19.25;;;;;25.18;48.26;100317.75;5096805;27;45379;-51
2022/08/16 08:21:20;;;;;;;;;23.25;22.25;;;;;25.17;48.63;100316.91;5096832;27;47150;-56
2022/08/16 08:23:47;;;;;;;;;17.25;16.75;;;;;25.17;47.94;100321.38;5096614;27;45776;-57
2022/08/16 08:26:12;;;;;;;;;20.75;19.00;;;;;25.21;47.80;100322.78;5097251;27;45159;-52
2022/08/16 08:28:38;;;;;;;;;19.00;17.75;;;;;25.21;48.32;100316.66;5095967;27;45442;-50
2022/08/16 08:31:04;;;;;;;;;21.25;21.25;;;;;25.22;48.22;100313.84;5096365;27;46166;-53
2022/08/16 08:33:31;;;;;;;;;21.00;19.25;;;;;25.21;48.17;100314.81;5096679;27;45372;-54
2022/08/16 12:01:33;;;;;;;;;18.25;17.25;;;;;26.80;45.21;100363.25;5443522;22;46850;-46
2022/08/16 12:03:58;;;;;;;;;14.50;14.25;;;;;26.81;44.71;100364.94;5099800;27;45152;-48
2022/08/16 12:06:24;;;;;;;;;18.00;16.00;;;;;26.82;44.65;100364.81;5093699;28;45354;-44
2022/08/16 12:08:50;;;;;;;;;17.25;17.00;;;;;26.83;44.59;100368.28;5098352;28;44949;-46
2022/08/16 12:11:16;;;;;;;;;17.00;15.50;;;;;26.82;44.65;100367.47;5098626;27;45489;-44
2022/08/16 12:13:41;;;;;;;;;19.00;16.75;;;;;26.82;44.97;100372.78;5103291;28;44796;-43
2022/08/16 12:16:08;;;;;;;;;16.50;15.00;;;;;26.83;44.89;100374.47;5103195;27;45293;-47
2022/08/16 12:18:34;;;;;;;;;20.25;17.00;;;;;26.84;44.71;100380.63;5087151;28;45231;-44
2022/08/16 12:20:59;;;;;;;;;15.50;15.50;;;;;26.84;44.70;100380.63;5077030;28;46087;-44
2022/08/16 12:23:25;;;;;;;;;15.00;14.50;;;;;26.85;44.93;100383.13;5079568;28;45375;-43
2022/08/16 12:25:51;;;;;;;;;15.50;14.75;;;;;26.85;44.65;100383.13;5077950;28;45272;-44
2022/08/16 12:28:17;;;;;;;;;18.00;16.50;;;;;26.85;44.59;100383.13;5078688;28;45620;-43
2022/08/16 12:30:44;;;;;;;;;17.00;16.00;;;;;26.86;44.71;100383.97;5092815;28;47035;-44
2022/08/16 12:33:15;;;;;;;;;16.25;15.50;;;;;26.86;44.72;100368.03;5097987;28;45418;-47
2022/08/16 12:35:43;;;;;;;;;17.75;15.50;;;;;26.87;44.65;100371.50;5097310;28;44622;-46
2022/08/16 12:38:10;;;;;;;;;17.75;17.25;;;;;26.87;44.63;100368.84;5077740;28;45635;-47
2022/08/16 12:40:41;;;;;;;;;16.75;15.00;;;;;26.87;44.64;100372.38;5076932;28;45483;-48
2022/08/16 12:43:09;;;;;;;;;19.00;17.50;;;;;26.88;44.34;100373.19;5076672;28;45351;-47
2022/08/16 12:45:47;;;;;;;;;15.75;15.75;;;;;26.88;44.49;100360.75;5087144;28;45422;-44
2022/08/16 12:50:59;;;;;;;;;17.75;16.25;;;;;26.89;44.34;100366.91;5076152;28;45838;-46
2022/08/16 12:53:24;;;;;;;;;14.00;13.75;;;;;26.89;44.74;100366.91;5076274;28;45343;-51
2022/08/16 12:55:50;;;;;;;;;18.00;16.00;;;;;26.90;44.63;100366.75;5076532;28;45731;-47
2022/08/16 12:58:16;;;;;;;;;16.50;15.00;;;;;26.90;44.38;100364.09;5078829;28;45537;-50
2022/08/16 13:00:42;;;;;;;;;16.75;16.75;;;;;26.91;44.51;100368.44;5077146;28;46519;-48
2022/08/16 13:03:08;;;;;;;;;18.00;17.00;;;;;26.91;44.80;100368.44;5076817;28;45493;-47
2022/08/16 13:05:40;;;;;;;;;19.00;15.00;;;;;26.92;44.79;100372.78;5076839;28;45406;-49
2022/08/16 13:08:17;;;;;;;;;16.25;15.00;;;;;26.93;44.90;100373.63;5076652;28;45234;-47
2022/08/16 13:10:45;;;;;;;;;16.00;15.25;;;;;26.92;44.94;100363.97;5076442;28;45415;-47
2022/08/16 13:13:11;;;;;;;;;20.25;18.50;;;;;26.92;44.61;100361.31;5058131;28;45790;-47
2022/08/16 13:15:37;;;;;;;;;18.00;16.75;;;;;26.93;44.91;100360.34;5076388;28;45452;-47
2022/08/16 13:18:03;;;;;;;;;16.25;16.25;;;;;26.95;44.50;100366.38;5092787;28;44802;-47
2022/08/16 13:20:29;;;;;;;;;18.50;18.50;;;;;26.96;44.52;100368.03;5101872;27;46631;-43
2022/08/16 13:23:07;;;;;;;;;16.75;16.50;;;;;26.96;44.69;100352.06;5079059;28;45425;-47
2022/08/16 13:25:35;;;;;;;;;17.00;17.00;;;;;26.97;44.31;100348.44;5077076;28;45335;-47
2022/08/16 13:28:01;;;;;;;;;19.50;17.50;;;;;26.97;44.31;100348.44;5081845;28;45549;-47
2022/08/16 13:30:28;;;;;;;;;20.25;19.75;;;;;26.98;44.62;100335.00;5076064;28;45461;-44
2022/08/16 13:32:55;;;;;;;;;16.00;15.50;;;;;26.98;44.56;100339.47;5074708;28;45976;-44
2022/08/16 13:35:22;;;;;;;;;20.00;18.25;;;;;27.00;44.70;100332.19;5057603;28;45409;-46
2022/08/16 13:37:48;;;;;;;;;17.00;16.00;;;;;27.00;44.48;100332.19;5076033;28;45457;-46
2022/08/16 13:40:13;;;;;;;;;16.50;16.50;;;;;27.00;44.51;100326.88;5075133;28;45406;-45
2022/08/16 13:42:39;;;;;;;;;15.00;14.25;;;;;27.01;44.44;100320.59;5076150;28;45388;-48
2022/08/16 13:45:07;;;;;;;;;18.00;17.00;;;;;27.01;44.41;100313.44;5057670;28;45478;-44
2022/08/16 13:47:33;;;;;;;;;18.00;17.00;;;;;27.01;44.43;100309.94;5076294;28;45322;-45
2022/08/16 13:49:58;;;;;;;;;16.00;16.00;;;;;27.02;44.42;100298.31;5075605;28;46020;-46
2022/08/16 13:52:24;;;;;;;;;22.25;17.50;;;;;27.02;44.42;100298.31;5075624;28;50793;-48
2022/08/16 13:54:49;;;;;;;;;16.50;16.50;;;;;27.03;44.39;100304.47;5075478;28;45291;-46
2022/08/16 13:57:15;;;;;;;;;17.00;15.50;;;;;27.02;44.08;100301.00;5077696;28;45312;-47
2022/08/16 13:59:42;;;;;;;;;15.50;15.50;;;;;27.01;44.20;100296.66;5078467;28;47091;-46
2022/08/16 14:02:08;;;;;;;;;14.75;14.75;;;;;27.02;44.14;100293.00;5078580;28;45474;-46
2022/08/16 14:04:36;;;;;;;;;10.25;10.25;;;;;27.04;44.16;100300.84;5080628;28;45335;-45
2022/08/16 14:07:06;;;;;;;;;14.50;13.75;;;;;27.03;44.03;100310.66;5102423;27;44765;-49
2022/08/16 14:09:33;;;;;;;;;17.00;16.50;;;;;27.05;44.27;100310.50;5078451;28;46682;-46
2022/08/16 14:11:59;;;;;;;;;20.50;16.75;;;;;27.05;44.23;100313.16;5059675;28;45417;-45
2022/08/16 14:14:25;;;;;;;;;17.00;17.00;;;;;27.05;44.33;100307.84;5079280;28;45445;-45
2022/08/16 14:16:51;;;;;;;;;19.50;19.00;;;;;27.05;44.34;100303.38;5079070;28;45509;-45
2022/08/16 14:19:18;;;;;;;;;21.25;18.00;;;;;27.06;44.23;100304.19;5078818;28;45413;-48
2022/08/16 14:21:44;;;;;;;;;17.50;17.25;;;;;27.08;44.35;100311.06;5079368;28;45312;-45
2022/08/16 14:24:13;;;;;;;;;18.25;18.00;;;;;27.08;44.25;100315.53;5061117;28;45337;-47
2022/08/16 14:26:40;;;;;;;;;17.50;14.75;;;;;27.08;44.22;100313.72;5079239;28;45459;-46
2022/08/16 14:29:06;;;;;;;;;22.25;18.50;;;;;27.09;44.19;100315.38;5078565;28;46409;-46
2022/08/16 14:31:31;;;;;;;;;16.50;16.00;;;;;27.11;44.36;100307.28;5078221;28;45770;-45
2022/08/16 14:33:57;;;;;;;;;18.25;18.00;;;;;27.11;44.19;100316.09;5078893;28;45350;-45
2022/08/16 14:36:23;;;;;;;;;15.75;15.75;;;;;27.11;44.06;100313.44;5079604;28;45303;-47
2022/08/16 14:38:48;;;;;;;;;20.50;19.50;;;;;27.12;44.08;100314.28;5081969;28;47201;-45
2022/08/16 14:41:13;;;;;;;;;17.75;16.25;;;;;27.12;43.99;100312.47;5083533;28;44639;-47
2022/08/16 14:43:39;;;;;;;;;17.00;17.00;;;;;27.13;44.08;100303.50;5100754;28;44674;-47
2022/08/16 14:46:04;;;;;;;;;17.25;17.25;;;;;27.13;44.17;100307.97;5089761;28;45166;-46
2022/08/16 14:48:30;;;;;;;;;19.00;16.75;;;;;27.14;44.10;100307.84;5081005;28;46452;-46
2022/08/16 14:50:55;;;;;;;;;17.50;16.75;;;;;27.14;44.01;100307.84;5090858;28;45369;-47